Meteo Giornale » Osservazioni meteo Stati Uniti (USA) » Bridgeport Sikorsky Memorial

ore: 20:52 - Osservazioni Meteo Bridgeport Sikorsky Memorial
Lat. 41° 9' N Lon. 73° 7' W Alt. 3 metri s.l.m.

sereno America/New_York

19 °C

Sereno

Temp. 24 Ore

16 °C

21 °C

Est

7.4 Km/h

Dew point 17 °C

Umidità 88 %

Visibilità  10 Km

Il sole sorge alle ore 05:17

Il sole tramonta alle ore 20:28

Data e Ora Cielo e Fenomeni T °C DP °C Um. % Pres. hPa Vis. km Vento km/h
Oggi h: 20:52 sereno Sereno 19 17 88 1008 10 E 7.4
Oggi h: 19:52 sereno Sereno 19 16 82 1009 10 E/SE 9.3
Oggi h: 18:52 poco_nuvoloso Poco Nuvoloso 21 14 64 1008 10 S/SE 7.4
Oggi h: 17:52 molto_nuvoloso Molto Nuvoloso 21 18 82 1009 10 E 14.8
Oggi h: 16:52 coperto Coperto 19 17 88 1009 10 E 16.7
Oggi h: 15:52 coperto Coperto 19 17 88 1010 10 E 18.5
Oggi h: 14:52 coperto Coperto 19 18 93 1010 10 E 14.8
Oggi h: 13:52 coperto_pioggia Pioggia Debole 19 17 88 1011 10 E 14.8
Oggi h: 11:52 coperto_pioggia Pioggia Debole 18 16 88 1012 14 E/SE 16.7
Oggi h: 10:52 coperto Coperto 18 16 88 1012 10 E 11.1
Oggi h: 10:26 coperto_pioggia Pioggia Debole Foschia 17 15 88 1012 6 E 9.3
Oggi h: 10:18 coperto_pioggia Pioggia Debole 18 14 77 1012 10 E 7.4
Oggi h: 09:52 coperto_pioggia Pioggia Debole 17 14 82 1012 10 E/SE 11.1
Oggi h: 08:52 coperto Coperto 17 14 82 1012 10 N 7.4
Oggi h: 08:32 coperto_pioggia Pioggia Debole Foschia 16 14 87 1012 10 N 5.5
Oggi h: 08:24 nuvoloso_temporali Temporale nelle Vicinanze Pioggia Debole 16 14 87 1012 3 N 0
Oggi h: 08:11 nuvoloso_temporali Temporale con Pioggia Foschia 16 14 87 1012 2 N 0
Oggi h: 08:03 nuvoloso_temporali Temporale con Pioggia 16 13 82 1013 2 S/SO 13
Oggi h: 08:01 nuvoloso_temporali Temporale con Pioggia 17 14 82 1012 5 S 16.7
Oggi h: 07:57 nuvoloso_temporali Temporale con Pioggia 18 15 82 1012 2 S/SO 25.9
Oggi h: 07:52 coperto_pioggia Pioggia Foschia 18 16 88 1012 8 S/SO 14.8
Oggi h: 06:52 coperto Coperto 18 16 88 1011 10 S/SE 11.1
Oggi h: 05:52 coperto Coperto 18 16 88 1011 10 S/SE 11.1
Oggi h: 04:52 coperto Coperto 18 16 88 1011 10 SE 13
Oggi h: 03:52 coperto Coperto 18 16 88 1011 10 S/SE 11.1
Oggi h: 02:52 coperto Coperto 19 15 77 1012 10 S 13
Oggi h: 01:52 coperto Coperto 18 15 82 1012 10 S 7.4
Oggi h: 00:52 nuvoloso Nuvoloso 18 14 77 1012 10 S 7.4
Ieri h: 23:52 nuvoloso Nuvoloso 18 14 77 1013 10 S 7.4
Ieri h: 22:52 coperto Coperto 19 14 72 1013 10 S/SO 11.1
Ieri h: 21:52 coperto Coperto 19 14 72 1013 10 S/SO 13